Silver City, NM

9:10 PM MDT on April 24, 2017 (GMT -0600)
Grant County

Weather History for KSVC - April, 2013

Change the Weather History Date:

Wednesday, April 3, 2013

  Actual Average (KDMN) Record (KDMN)
Temperature  
Mean Temperature 50 °F -  
Max Temperature 68 °F 74 °F 87 °F (1959)
Min Temperature 33 °F 37 °F 26 °F (1988)
Degree Days  
Heating Degree Days 14    
Moisture  
Dew Point 18 °F    
Average Humidity 28    
Maximum Humidity 52    
Minimum Humidity 15    
Precipitation  
Precipitation 0.00 in - - ()
Sea Level Pressure  
Sea Level Pressure 30.10 in    
Wind  
Wind Speed 10 mph (NW)    
Max Wind Speed 21 mph    
Max Gust Speed 30 mph    
Visibility 10 miles    
Events      
Averages and records for this station are not official NWS values.
T = Trace of Precipitation, MM = Missing Value Source: NWS Daily Summary

Daily Weather History Graph

Daily Weather History Graph

Search for Another Location

Airport or City:

Trip Planner

Search our weather history database for the weather conditions in past years. The results will help you decide how hot, cold, wet, or windy it might be!

Date:

Astronomy

Apr. 03, 2013 Rise Set
Actual Time 6:57 AM MDT 7:34 PM MDT
Civil Twilight 6:32 AM MDT 7:59 PM MDT
Nautical Twilight 6:03 AM MDT 8:28 PM MDT
Astronomical Twilight 5:33 AM MDT 8:58 PM MDT
Moon 2:20 AM MDT (4/3) 1:09 PM MDT (4/3)
Length of Visible Light 13h 26m
Length of Day
12h 36m
Last Quarter, 44% of the Moon is Illuminated
Apr 3
Last Quarter
Apr 10
New
Apr 18
First Quarter
Apr 25
Full
May 2
Last Quarter

Hourly Weather History & Observations

Time (MDT) Temp. Windchill Dew Point Humidity Pressure Visibility Wind Dir Wind Speed Gust Speed Precip Events Conditions
12:15 AM 46.4 °F 41.1 °F 10.4 °F 23% 30.04 in 10.0 mi NW 11.5 mph - N/A   Clear
12:35 AM 46.4 °F 40.4 °F 12.2 °F 25% 30.04 in 10.0 mi NW 13.8 mph - N/A   Clear
12:55 AM 44.6 °F 38.8 °F 12.2 °F 27% 30.04 in 10.0 mi NW 11.5 mph - N/A   Clear
1:15 AM 44.6 °F 38.8 °F 12.2 °F 27% 30.04 in 10.0 mi NW 11.5 mph - N/A   Clear
1:35 AM 42.8 °F 36.6 °F 12.2 °F 29% 30.05 in 10.0 mi NNW 11.5 mph - N/A   Clear
1:55 AM 41.0 °F 34.7 °F 14.0 °F 33% 30.05 in 10.0 mi NNW 10.4 mph - N/A   Clear
2:15 AM 41.0 °F 35.2 °F 14.0 °F 33% 30.05 in 10.0 mi North 9.2 mph - N/A   Clear
2:35 AM 41.0 °F 35.8 °F 14.0 °F 33% 30.05 in 10.0 mi NNW 8.1 mph - N/A   Clear
2:55 AM 41.0 °F 35.8 °F 14.0 °F 33% 30.06 in 10.0 mi North 8.1 mph - N/A   Clear
3:15 AM 39.2 °F 32.0 °F 14.0 °F 36% 30.06 in 10.0 mi NNW 11.5 mph - N/A   Clear
3:35 AM 41.0 °F 34.3 °F 14.0 °F 33% 30.07 in 10.0 mi NW 11.5 mph - N/A   Clear
3:55 AM 41.0 °F 35.2 °F 14.0 °F 33% 30.07 in 10.0 mi NNW 9.2 mph - N/A   Clear
4:15 AM 37.4 °F 31.4 °F 14.0 °F 38% 30.07 in 10.0 mi North 8.1 mph - N/A   Clear
4:35 AM 37.4 °F 30.3 °F 15.8 °F 41% 30.07 in 10.0 mi North 10.4 mph - N/A   Clear
4:55 AM 37.4 °F 30.3 °F 15.8 °F 41% 30.07 in 10.0 mi NW 10.4 mph - N/A   Clear
5:15 AM 35.6 °F 29.9 °F 15.8 °F 44% 30.07 in 10.0 mi NNW 6.9 mph - N/A   Clear
5:35 AM 35.6 °F 28.6 °F 17.6 °F 48% 30.08 in 10.0 mi NNW 9.2 mph - N/A   Clear
5:55 AM 37.4 °F 32.8 °F 19.4 °F 48% 30.08 in 10.0 mi NNW 5.8 mph - N/A   Clear
6:15 AM 35.6 °F 29.2 °F 19.4 °F 52% 30.08 in 10.0 mi North 8.1 mph - N/A   Clear
6:35 AM 37.4 °F 31.4 °F 19.4 °F 48% 30.09 in 10.0 mi NW 8.1 mph - N/A   Clear
6:55 AM 33.8 °F 27.0 °F 17.6 °F 52% 30.09 in 10.0 mi NW 8.1 mph - N/A   Clear
7:15 AM 33.8 °F 27.7 °F 17.6 °F 52% 30.10 in 10.0 mi NW 6.9 mph - N/A   Clear
7:35 AM 37.4 °F 32.8 °F 21.2 °F 52% 30.11 in 10.0 mi NNW 5.8 mph - N/A   Clear
7:55 AM 41.0 °F 38.0 °F 23.0 °F 49% 30.12 in 10.0 mi NNW 4.6 mph - N/A   Clear
8:15 AM 46.4 °F 45.2 °F 23.0 °F 40% 30.13 in 10.0 mi NNW 3.5 mph - N/A   Clear
8:35 AM 50.0 °F - 23.0 °F 35% 30.13 in 10.0 mi WNW 3.5 mph - N/A   Clear
8:55 AM 50.0 °F - 23.0 °F 35% 30.14 in 10.0 mi Calm Calm - N/A   Clear
9:15 AM 53.6 °F - 23.0 °F 30% 30.14 in 10.0 mi Calm Calm - N/A   Clear
9:35 AM 53.6 °F - 23.0 °F 30% 30.14 in 10.0 mi Calm Calm - N/A   Clear
9:55 AM 55.4 °F - 23.0 °F 29% 30.15 in 10.0 mi NW 3.5 mph - N/A   Clear
10:15 AM 55.4 °F - 23.0 °F 29% 30.15 in 10.0 mi ESE 4.6 mph - N/A   Clear
10:35 AM 57.2 °F - 23.0 °F 27% 30.14 in 10.0 mi ENE 5.8 mph - N/A   Clear
10:55 AM 57.2 °F - 23.0 °F 27% 30.14 in 10.0 mi NNW 5.8 mph - N/A   Clear
11:15 AM 59.0 °F - 24.8 °F 27% 30.14 in 10.0 mi WSW 8.1 mph - N/A   Clear
11:35 AM 60.8 °F - 23.0 °F 23% 30.13 in 10.0 mi North 5.8 mph - N/A   Clear
11:55 AM 60.8 °F - 23.0 °F 23% 30.13 in 10.0 mi WSW 9.2 mph - N/A   Clear
12:15 PM 62.6 °F - 21.2 °F 20% 30.12 in 10.0 mi NW 9.2 mph - N/A   Clear
12:35 PM 62.6 °F - 19.4 °F 19% 30.12 in 10.0 mi West 10.4 mph 21.9 mph N/A   Clear
12:55 PM 62.6 °F - 19.4 °F 19% 30.11 in 10.0 mi West 4.6 mph 18.4 mph N/A   Clear
1:15 PM 64.4 °F - 17.6 °F 16% 30.11 in 10.0 mi WNW 10.4 mph 20.7 mph N/A   Clear
1:35 PM 64.4 °F - 19.4 °F 18% 30.11 in 10.0 mi NW 12.7 mph 24.2 mph N/A   Clear
1:55 PM 64.4 °F - 17.6 °F 16% 30.10 in 10.0 mi WNW 16.1 mph 21.9 mph N/A   Clear
2:15 PM 66.2 °F - 19.4 °F 17% 30.09 in 10.0 mi WNW 20.7 mph 27.6 mph N/A   Clear
2:35 PM 66.2 °F - 17.6 °F 15% 30.09 in 10.0 mi WNW 16.1 mph 27.6 mph N/A   Clear
2:55 PM 68.0 °F - 19.4 °F 16% 30.08 in 10.0 mi WNW 19.6 mph 28.8 mph N/A   Clear
3:15 PM 66.2 °F - 21.2 °F 18% 30.07 in 10.0 mi West 17.3 mph 29.9 mph N/A   Clear
3:35 PM 68.0 °F - 19.4 °F 16% 30.07 in 10.0 mi WNW 17.3 mph 24.2 mph N/A   Clear
3:55 PM 68.0 °F - 19.4 °F 16% 30.06 in 10.0 mi WNW 17.3 mph 23.0 mph N/A   Clear
4:15 PM 68.0 °F - 17.6 °F 15% 30.06 in 10.0 mi WNW 16.1 mph 27.6 mph N/A   Clear
4:35 PM 68.0 °F - 17.6 °F 15% 30.06 in 10.0 mi WNW 17.3 mph 28.8 mph N/A   Clear
4:55 PM 68.0 °F - 17.6 °F 15% 30.05 in 10.0 mi West 12.7 mph 18.4 mph N/A   Clear
5:15 PM 68.0 °F - 17.6 °F 15% 30.05 in 10.0 mi West 16.1 mph 25.3 mph N/A   Partly Cloudy
5:35 PM 68.0 °F - 17.6 °F 15% 30.06 in 10.0 mi WNW 13.8 mph 24.2 mph N/A   Clear
5:55 PM 68.0 °F - 17.6 °F 15% 30.06 in 10.0 mi WNW 13.8 mph - N/A   Clear
6:15 PM 68.0 °F - 17.6 °F 15% 30.07 in 10.0 mi WNW 13.8 mph 23.0 mph N/A   Clear
6:35 PM 68.0 °F - 19.4 °F 16% 30.07 in 10.0 mi West 17.3 mph 21.9 mph N/A   Partly Cloudy
6:55 PM 66.2 °F - 19.4 °F 17% 30.07 in 10.0 mi West 17.3 mph 21.9 mph N/A   Clear
7:15 PM 66.2 °F - 19.4 °F 17% 30.07 in 10.0 mi West 19.6 mph - N/A   Clear
7:35 PM 64.4 °F - 19.4 °F 18% 30.08 in 10.0 mi WNW 18.4 mph - N/A   Clear
7:55 PM 62.6 °F - 19.4 °F 19% 30.09 in 10.0 mi West 18.4 mph - N/A   Partly Cloudy
8:15 PM 62.6 °F - 19.4 °F 19% 30.10 in 10.0 mi West 12.7 mph - N/A   Clear
8:35 PM 60.8 °F - 19.4 °F 20% 30.11 in 10.0 mi WNW 15.0 mph - N/A   Clear
8:55 PM 59.0 °F - 19.4 °F 22% 30.12 in 10.0 mi WNW 12.7 mph - N/A   Clear
9:15 PM 57.2 °F - 19.4 °F 23% 30.13 in 10.0 mi NW 10.4 mph - N/A   Clear
9:35 PM 55.4 °F - 19.4 °F 25% 30.14 in 10.0 mi North 10.4 mph - N/A   Clear
9:55 PM 55.4 °F - 19.4 °F 25% 30.16 in 10.0 mi North 12.7 mph - N/A   Clear
10:15 PM 55.4 °F - 19.4 °F 25% 30.17 in 10.0 mi North 8.1 mph - N/A   Clear
10:35 PM 53.6 °F - 19.4 °F 26% 30.17 in 10.0 mi North 9.2 mph - N/A   Clear
10:55 PM 51.8 °F - 19.4 °F 28% 30.17 in 10.0 mi North 9.2 mph - N/A   Clear
11:15 PM 48.2 °F - 17.6 °F 30% 30.17 in 10.0 mi NNW 9.2 mph - N/A   Clear
11:35 PM 48.2 °F - 17.6 °F 30% 30.17 in 10.0 mi North 11.5 mph - N/A   Clear
11:55 PM 50.0 °F - 15.8 °F 26% 30.17 in 10.0 mi North 12.7 mph - N/A   Clear